»·PEaware :: N714LF KLPC-KOXR

N714LF :: KLPC-KOXR

FLIGHT INFORMATION

Flight Status: Arrived
Operator: Privately registered:
United States
More flights under this callsign
Pilot: David R. (15748)
Aircraft: CESSNA 172 SKYHAWK
(C172)
More flights by this aircraft type
Origin: KLPC Lompoc
United States
Destination: KOXR Oxnard
United States
More flights between these airports :: More routes between these airports
Route: +RZS VTU
File this flight plan on PilotEdge
Remarks: RV ILS 25
Altitude:
(Current/Filed)
7,000ft
Speed:
(Current/Filed)
100kts
Departed: 15-Apr-18 03:47 PM
Arrived: 15-Apr-18 04:47 PM
Distance/Time
Traveled:
69nm/1:00
Distance/Time
To Go:
Arrived

Flight Plot

Page will automatically refresh every two minutes.

Flight plan parsing failed; only flown route is shown


Map Options




Map Legend


Flown Route
Filed Route
Departure Airport
Arrival Airport
Navaid (VOR, NDB)
Fix

Horizontal Profiles

Position Reports

Time Latitude Longitude Heading Altitude Ground
Speed
15-Apr-18 15:25 34.666303 -120.474875 213 91ft 0kts
15-Apr-18 15:26 34.666302 -120.474875 213 91ft 0kts
15-Apr-18 15:27 34.666302 -120.474876 213 91ft 0kts
15-Apr-18 15:28 34.666301 -120.474876 213 91ft 0kts
15-Apr-18 15:29 34.666301 -120.474876 213 91ft 0kts
15-Apr-18 15:30 34.666301 -120.474877 213 91ft 0kts
15-Apr-18 15:31 34.666300 -120.474877 213 91ft 0kts
15-Apr-18 15:32 34.666300 -120.474877 213 91ft 0kts
15-Apr-18 15:33 34.666300 -120.474877 213 91ft 0kts
15-Apr-18 15:34 34.666299 -120.474878 213 91ft 0kts
15-Apr-18 15:35 34.666299 -120.474878 213 91ft 0kts
15-Apr-18 15:36 34.666299 -120.474878 213 91ft 0kts
15-Apr-18 15:37 34.666298 -120.474879 213 91ft 0kts
15-Apr-18 15:38 34.666298 -120.474879 213 91ft 0kts
15-Apr-18 15:39 34.666297 -120.474879 213 91ft 0kts
15-Apr-18 15:40 34.666297 -120.474879 213 91ft 0kts
15-Apr-18 15:41 34.666297 -120.474880 213 91ft 0kts
15-Apr-18 15:42 34.666296 -120.474880 213 91ft 0kts
15-Apr-18 15:43 34.666296 -120.474880 213 91ft 0kts
15-Apr-18 15:44 34.666296 -120.474881 213 91ft 0kts
15-Apr-18 15:45 34.666054 -120.475010 186 91ft 12kts
15-Apr-18 15:46 34.666351 -120.454215 83 571ft 83kts
15-Apr-18 15:47 34.663953 -120.427272 98 1510ft 79kts
15-Apr-18 15:48 34.659221 -120.401199 103 2357ft 78kts
15-Apr-18 15:49 34.654005 -120.375944 102 3128ft 76kts
15-Apr-18 15:50 34.649147 -120.352668 102 3858ft 77kts
15-Apr-18 15:51 34.643876 -120.328537 104 4674ft 76kts
15-Apr-18 15:52 34.637687 -120.303886 105 5273ft 76kts
15-Apr-18 15:53 34.631367 -120.279055 105 5835ft 76kts
15-Apr-18 15:54 34.625082 -120.254432 105 6321ft 76kts
15-Apr-18 15:55 34.618363 -120.230024 107 6767ft 76kts
15-Apr-18 15:56 34.611290 -120.204861 107 7109ft 93kts
15-Apr-18 15:57 34.601309 -120.168532 107 6978ft 120kts
15-Apr-18 15:58 34.590839 -120.130219 107 6979ft 119kts
15-Apr-18 15:59 34.580429 -120.091727 106 6969ft 119kts
15-Apr-18 16:00 34.570761 -120.053187 105 6970ft 120kts
15-Apr-18 16:01 34.561640 -120.014229 103 6972ft 119kts
15-Apr-18 16:02 34.554164 -119.975712 102 6972ft 115kts
15-Apr-18 16:03 34.547803 -119.938532 104 6970ft 111kts
15-Apr-18 16:04 34.540684 -119.901930 106 6966ft 111kts
15-Apr-18 16:05 34.533424 -119.865551 106 6969ft 111kts
15-Apr-18 16:06 34.525858 -119.829168 108 6972ft 111kts
15-Apr-18 16:07 34.516856 -119.793139 110 6967ft 111kts
15-Apr-18 16:08 34.506002 -119.758291 127 6971ft 109kts
15-Apr-18 16:09 34.488421 -119.728030 128 6970ft 109kts
15-Apr-18 16:10 34.470843 -119.697943 128 6965ft 109kts
15-Apr-18 16:11 34.453436 -119.667794 127 6968ft 109kts
15-Apr-18 16:12 34.436147 -119.637001 127 6977ft 113kts
15-Apr-18 16:13 34.417932 -119.604315 126 6833ft 123kts
15-Apr-18 16:14 34.397660 -119.568801 127 6201ft 130kts
15-Apr-18 16:15 34.376896 -119.532399 126 5552ft 131kts
15-Apr-18 16:16 34.356144 -119.496234 127 4904ft 130kts
15-Apr-18 16:17 34.335625 -119.459809 125 4254ft 130kts
15-Apr-18 16:18 34.315605 -119.423251 125 3606ft 130kts
15-Apr-18 16:19 34.296575 -119.386089 99 3024ft 127kts
15-Apr-18 16:20 34.295517 -119.350609 93 3595ft 92kts
15-Apr-18 16:21 34.294836 -119.318499 93 4036ft 116kts
15-Apr-18 16:22 34.293627 -119.276043 93 3951ft 122kts
15-Apr-18 16:23 34.292541 -119.236145 93 3987ft 122kts
15-Apr-18 16:24 34.291405 -119.193591 93 3982ft 128kts
15-Apr-18 16:25 34.290356 -119.150362 93 3971ft 126kts
15-Apr-18 16:26 34.289356 -119.107947 93 3978ft 127kts
15-Apr-18 16:27 34.288300 -119.064361 93 3966ft 129kts
15-Apr-18 16:28 34.287238 -119.021015 93 3953ft 123kts
15-Apr-18 16:29 34.286296 -118.980489 93 3966ft 120kts
15-Apr-18 16:30 34.285343 -118.939627 93 3957ft 120kts
15-Apr-18 16:31 34.284389 -118.899007 93 3973ft 127kts
15-Apr-18 16:32 34.263901 -118.873841 172 3949ft 119kts
15-Apr-18 16:33 34.231696 -118.867939 173 3972ft 121kts
15-Apr-18 16:34 34.209362 -118.893495 243 3758ft 127kts
15-Apr-18 16:35 34.202691 -118.934374 258 3383ft 121kts
15-Apr-18 16:36 34.198082 -118.974703 265 3190ft 120kts
15-Apr-18 16:37 34.199104 -119.014709 272 2979ft 110kts
15-Apr-18 16:38 34.200382 -119.044094 266 2747ft 80kts
15-Apr-18 16:39 34.200042 -119.070531 266 2343ft 77kts
15-Apr-18 16:40 34.199596 -119.094716 268 1860ft 71kts
15-Apr-18 16:41 34.199794 -119.117806 268 1363ft 68kts
15-Apr-18 16:42 34.200317 -119.140574 271 873ft 66kts
15-Apr-18 16:43 34.200130 -119.160938 269 737ft 58kts
15-Apr-18 16:44 34.200457 -119.180927 269 491ft 55kts
15-Apr-18 16:45 34.200738 -119.198821 270 112ft 47kts
15-Apr-18 16:46 34.200513 -119.207179 212 46ft 12kts
15-Apr-18 16:47 34.199698 -119.206344 85 46ft 14kts
15-Apr-18 16:48 34.199621 -119.200622 90 46ft 18kts
15-Apr-18 16:49 34.198913 -119.199793 320 46ft 3kts

Navigation Log

Ident Type
Flight plan parsing failed, navigation log unavailable